Heina — LAWY7 — position and weather

sailwx.info

Track history (hours):
 
Tides and Currents Weather Stations Pressure Air Temp Water Temp Dewpoint Dewpoint Depression Visibility Wind Speed Wind Dir Waves Ship Positions

Heina

Last reported at 2018-Mar-04 20:41 UTC. Time now 2018-Apr-23 07:12 UTC.
Position S 32°03' W 072°44'.
Warning: this ship's position is 49 days out of date.

Length 225 m; draft 14.1 m.

Type: Ship. MMSI: 258443000.

Date/timePositionNaut miles runAvg speedWind from/ knotsBaromVisibWave heightAir tempDewpointWater temp
2018-Mar-04 20:41S 32°03' W 072°44'310.6
2018-Mar-04 20:23S 32°06' W 072°45'410.6
2018-Mar-04 20:00S 32°10' W 072°45'1710.6
2018-Mar-04 18:23S 32°27' W 072°50'510.6
2018-Mar-04 17:52S 32°32' W 072°51'510.3
2018-Mar-04 17:22S 32°38' W 072°52'1210.3
2018-Mar-04 16:11S 32°50' W 072°54'410.2
2018-Mar-04 15:46S 32°54' W 072°55'310.3
2018-Mar-04 15:28S 32°57' W 072°56'510.5
2018-Mar-04 15:00S 33°02' W 072°58'710.5
2018-Mar-04 14:22S 33°08' W 072°59'  
Track history (hours):
 
Tides and Currents Weather Stations Pressure Air Temp Water Temp Dewpoint Dewpoint Depression Visibility Wind Speed Wind Dir Waves Ship Positions

Heina

Last reported at 2018-Mar-04 20:41 UTC. Time now 2018-Apr-23 07:12 UTC.
Position S 32°03' W 072°44'.
Warning: this ship's position is 49 days out of date.

Length 225 m; draft 14.1 m.

Type: Ship. MMSI: 258443000.

Date/timePositionNaut miles runAvg speedWind from/ knotsBaromVisibWave heightAir tempDewpointWater temp
2018-Mar-04 20:41S 32°03' W 072°44'310.6
2018-Mar-04 20:23S 32°06' W 072°45'410.6
2018-Mar-04 20:00S 32°10' W 072°45'1710.6
2018-Mar-04 18:23S 32°27' W 072°50'510.6
2018-Mar-04 17:52S 32°32' W 072°51'510.3
2018-Mar-04 17:22S 32°38' W 072°52'1210.3
2018-Mar-04 16:11S 32°50' W 072°54'410.2
2018-Mar-04 15:46S 32°54' W 072°55'310.3
2018-Mar-04 15:28S 32°57' W 072°56'510.5
2018-Mar-04 15:00S 33°02' W 072°58'710.5
2018-Mar-04 14:22S 33°08' W 072°59'  

Dump ship's entire track history